This is the latest recevied weather packets stored in our database for station/object WQ5C-13. If no packets are shown the sender has not sent any weather packets the latest 10 day(s).
| Time | Temp. | Humidity | Pressure | Rain* | Wind** | Luminosity | Snow |
|---|---|---|---|---|---|---|---|
| 1778083815 | 22.78° C | 94% | 1011.6 hPa | 0 mm | - | - | - |
| 1778080215 | 22.22° C | 93% | 1010.6 hPa | 0.25 mm | - | - | - |
| 1778078415 | 22.22° C | 92% | 1010.4 hPa | 0 mm | - | - | - |
| 1778077816 | 22.78° C | 92% | 1010.4 hPa | 0 mm | - | - | - |
| 1778077216 | 22.78° C | 92% | 1009.9 hPa | 0 mm | - | - | - |
| 1778076635 | 22.78° C | 92% | 1009.7 hPa | 0 mm | - | - | - |
| 1778064015 | 22.22° C | 91% | 1008.6 hPa | 0 mm | - | - | - |
| 1778062215 | 22.78° C | 90% | 1008.5 hPa | 0 mm | - | - | - |
| 1778055015 | 22.78° C | 88% | 1008.2 hPa | 0 mm | - | - | - |
| 1778053815 | 22.78° C | 87% | 1008.4 hPa | 0 mm | - | - | - |
| 1778052615 | 22.78° C | 87% | 1008.5 hPa | 0 mm | - | - | - |
| 1778049015 | 23.33° C | 87% | 1009 hPa | 0 mm | - | - | - |
| 1778046015 | 23.33° C | 86% | 1008.9 hPa | 0 mm | - | - | - |
| 1778045416 | 23.33° C | 86% | 1008.9 hPa | 0 mm | - | - | - |
| 1778044236 | 23.33° C | 86% | 1008.8 hPa | 0 mm | - | - | - |
| 1778043015 | 23.33° C | 85% | 1008.9 hPa | 0 mm | - | - | - |
| 1778032815 | 25.56° C | 76% | 1006.9 hPa | 0 mm | - | - | - |
| 1778031615 | 25.56° C | 74% | 1006.7 hPa | 0 mm | - | - | - |
| 1778029215 | 26.11° C | 72% | 1006.4 hPa | 0 mm | - | - | - |
| 1778026215 | 26.67° C | 69% | 1006.1 hPa | 0 mm | - | - | - |
| 1778025015 | 26.67° C | 68% | 1005.9 hPa | 0 mm | - | - | - |
| 1778024415 | 26.67° C | 69% | 1005.9 hPa | 0 mm | - | - | - |
| 1778022615 | 26.67° C | 67% | 1005.7 hPa | 0 mm | - | - | - |
| 1778011215 | 26.11° C | 71% | 1007.8 hPa | 0 mm | - | - | - |
| 1778010615 | 25.56° C | 75% | 1007.9 hPa | 0 mm | - | - | - |
* Rain latest hour (hover to see other rain measurements)
** Current wind speed in m/s (hover to see current wind gust speed)